sensor_id;sensor_type;location;lat;lon;timestamp;P1;durP1;ratioP1;P2;durP2;ratioP2
57443;SDS011;43289;52.962;6.196;2024-03-02T00:00:18;4.88;;;2.50;;
57443;SDS011;43289;52.962;6.196;2024-03-02T00:02:47;4.20;;;2.47;;
57443;SDS011;43289;52.962;6.196;2024-03-02T00:05:14;5.78;;;2.13;;
57443;SDS011;43289;52.962;6.196;2024-03-02T00:10:39;4.75;;;2.15;;
57443;SDS011;43289;52.962;6.196;2024-03-02T00:13:08;3.85;;;2.40;;
57443;SDS011;43289;52.962;6.196;2024-03-02T00:18:10;3.93;;;2.10;;
57443;SDS011;43289;52.962;6.196;2024-03-02T00:20:37;3.85;;;2.30;;
57443;SDS011;43289;52.962;6.196;2024-03-02T00:23:04;5.03;;;2.50;;
57443;SDS011;43289;52.962;6.196;2024-03-02T00:25:44;3.38;;;2.28;;
57443;SDS011;43289;52.962;6.196;2024-03-02T00:28:11;4.50;;;2.47;;
57443;SDS011;43289;52.962;6.196;2024-03-02T00:33:36;4.78;;;2.40;;
57443;SDS011;43289;52.962;6.196;2024-03-02T00:36:02;5.85;;;2.47;;
57443;SDS011;43289;52.962;6.196;2024-03-02T00:38:32;3.40;;;2.00;;
57443;SDS011;43289;52.962;6.196;2024-03-02T00:41:07;5.93;;;2.85;;
57443;SDS011;43289;52.962;6.196;2024-03-02T00:43:44;4.47;;;2.60;;
57443;SDS011;43289;52.962;6.196;2024-03-02T00:46:20;4.20;;;2.60;;
57443;SDS011;43289;52.962;6.196;2024-03-02T00:48:56;6.47;;;2.53;;
57443;SDS011;43289;52.962;6.196;2024-03-02T00:51:24;6.22;;;2.55;;
57443;SDS011;43289;52.962;6.196;2024-03-02T00:53:51;5.57;;;2.50;;
57443;SDS011;43289;52.962;6.196;2024-03-02T00:56:20;8.13;;;2.95;;
57443;SDS011;43289;52.962;6.196;2024-03-02T00:58:46;5.20;;;2.20;;
57443;SDS011;43289;52.962;6.196;2024-03-02T01:01:12;5.15;;;2.45;;
57443;SDS011;43289;52.962;6.196;2024-03-02T01:03:38;7.22;;;2.38;;
57443;SDS011;43289;52.962;6.196;2024-03-02T01:06:06;7.32;;;2.22;;
57443;SDS011;43289;52.962;6.196;2024-03-02T01:08:33;4.35;;;2.17;;
57443;SDS011;43289;52.962;6.196;2024-03-02T01:10:59;4.20;;;2.00;;
57443;SDS011;43289;52.962;6.196;2024-03-02T01:13:26;5.38;;;2.38;;
57443;SDS011;43289;52.962;6.196;2024-03-02T01:15:52;5.10;;;2.72;;
57443;SDS011;43289;52.962;6.196;2024-03-02T01:21:03;5.07;;;2.83;;
57443;SDS011;43289;52.962;6.196;2024-03-02T01:23:29;4.55;;;2.63;;
57443;SDS011;43289;52.962;6.196;2024-03-02T01:25:55;4.03;;;2.28;;
57443;SDS011;43289;52.962;6.196;2024-03-02T01:28:21;4.47;;;2.47;;
57443;SDS011;43289;52.962;6.196;2024-03-02T01:30:47;5.40;;;2.53;;
57443;SDS011;43289;52.962;6.196;2024-03-02T01:33:14;4.85;;;2.42;;
57443;SDS011;43289;52.962;6.196;2024-03-02T01:35:40;4.88;;;2.28;;
57443;SDS011;43289;52.962;6.196;2024-03-02T01:38:06;4.93;;;2.42;;
57443;SDS011;43289;52.962;6.196;2024-03-02T01:40:36;5.40;;;2.53;;
57443;SDS011;43289;52.962;6.196;2024-03-02T01:43:06;4.57;;;2.28;;
57443;SDS011;43289;52.962;6.196;2024-03-02T01:45:32;3.95;;;2.20;;
57443;SDS011;43289;52.962;6.196;2024-03-02T01:47:58;3.38;;;2.33;;
57443;SDS011;43289;52.962;6.196;2024-03-02T01:50:25;5.10;;;2.10;;
57443;SDS011;43289;52.962;6.196;2024-03-02T01:52:51;4.82;;;2.33;;
57443;SDS011;43289;52.962;6.196;2024-03-02T01:55:17;5.10;;;2.05;;
57443;SDS011;43289;52.962;6.196;2024-03-02T01:57:43;3.42;;;2.08;;
57443;SDS011;43289;52.962;6.196;2024-03-02T02:00:10;4.65;;;2.70;;
57443;SDS011;43289;52.962;6.196;2024-03-02T02:02:36;4.35;;;2.30;;
57443;SDS011;43289;52.962;6.196;2024-03-02T02:05:02;4.40;;;2.53;;
57443;SDS011;43289;52.962;6.196;2024-03-02T02:10:51;5.53;;;3.03;;
57443;SDS011;43289;52.962;6.196;2024-03-02T02:13:17;4.70;;;2.28;;
57443;SDS011;43289;52.962;6.196;2024-03-02T02:15:43;6.85;;;2.60;;
57443;SDS011;43289;52.962;6.196;2024-03-02T02:18:09;4.55;;;2.20;;
57443;SDS011;43289;52.962;6.196;2024-03-02T02:20:35;4.80;;;2.33;;
57443;SDS011;43289;52.962;6.196;2024-03-02T02:23:02;3.80;;;2.60;;
57443;SDS011;43289;52.962;6.196;2024-03-02T02:25:29;5.80;;;2.65;;
57443;SDS011;43289;52.962;6.196;2024-03-02T02:27:56;3.88;;;1.98;;
57443;SDS011;43289;52.962;6.196;2024-03-02T02:30:23;4.82;;;2.30;;
57443;SDS011;43289;52.962;6.196;2024-03-02T02:32:49;3.75;;;2.20;;
57443;SDS011;43289;52.962;6.196;2024-03-02T02:35:15;3.47;;;2.10;;
57443;SDS011;43289;52.962;6.196;2024-03-02T02:37:42;3.65;;;2.35;;
57443;SDS011;43289;52.962;6.196;2024-03-02T02:40:08;5.32;;;2.75;;
57443;SDS011;43289;52.962;6.196;2024-03-02T02:42:34;6.00;;;2.92;;
57443;SDS011;43289;52.962;6.196;2024-03-02T02:45:00;7.20;;;2.53;;
57443;SDS011;43289;52.962;6.196;2024-03-02T02:47:26;3.47;;;2.20;;
57443;SDS011;43289;52.962;6.196;2024-03-02T02:49:54;3.50;;;2.03;;
57443;SDS011;43289;52.962;6.196;2024-03-02T02:52:21;3.97;;;2.65;;
57443;SDS011;43289;52.962;6.196;2024-03-02T02:54:47;5.57;;;2.15;;
57443;SDS011;43289;52.962;6.196;2024-03-02T02:57:13;4.72;;;2.40;;
57443;SDS011;43289;52.962;6.196;2024-03-02T02:59:39;4.38;;;2.28;;
57443;SDS011;43289;52.962;6.196;2024-03-02T03:02:05;4.53;;;2.10;;
57443;SDS011;43289;52.962;6.196;2024-03-02T03:04:31;6.93;;;2.30;;
57443;SDS011;43289;52.962;6.196;2024-03-02T03:06:57;4.03;;;2.25;;
57443;SDS011;43289;52.962;6.196;2024-03-02T03:09:23;4.28;;;2.30;;
57443;SDS011;43289;52.962;6.196;2024-03-02T03:11:49;6.28;;;2.40;;
57443;SDS011;43289;52.962;6.196;2024-03-02T03:14:15;4.47;;;2.47;;
57443;SDS011;43289;52.962;6.196;2024-03-02T03:16:41;4.55;;;2.00;;
57443;SDS011;43289;52.962;6.196;2024-03-02T03:19:07;5.10;;;2.35;;
57443;SDS011;43289;52.962;6.196;2024-03-02T03:21:33;3.65;;;2.30;;
57443;SDS011;43289;52.962;6.196;2024-03-02T03:23:59;4.22;;;2.40;;
57443;SDS011;43289;52.962;6.196;2024-03-02T03:26:26;4.45;;;2.22;;
57443;SDS011;43289;52.962;6.196;2024-03-02T03:28:52;4.78;;;2.30;;
57443;SDS011;43289;52.962;6.196;2024-03-02T03:31:18;4.18;;;2.53;;
57443;SDS011;43289;52.962;6.196;2024-03-02T03:33:44;4.72;;;2.05;;
57443;SDS011;43289;52.962;6.196;2024-03-02T03:36:10;5.03;;;2.50;;
57443;SDS011;43289;52.962;6.196;2024-03-02T03:38:36;4.90;;;2.55;;
57443;SDS011;43289;52.962;6.196;2024-03-02T03:41:02;4.35;;;2.05;;
57443;SDS011;43289;52.962;6.196;2024-03-02T03:43:28;4.60;;;2.75;;
57443;SDS011;43289;52.962;6.196;2024-03-02T03:45:54;4.72;;;3.10;;
57443;SDS011;43289;52.962;6.196;2024-03-02T03:48:20;4.82;;;2.67;;
57443;SDS011;43289;52.962;6.196;2024-03-02T03:50:46;4.57;;;2.67;;
57443;SDS011;43289;52.962;6.196;2024-03-02T03:53:12;3.90;;;2.10;;
57443;SDS011;43289;52.962;6.196;2024-03-02T03:55:39;3.97;;;2.45;;
57443;SDS011;43289;52.962;6.196;2024-03-02T03:58:06;3.95;;;2.22;;
57443;SDS011;43289;52.962;6.196;2024-03-02T04:00:32;4.85;;;2.50;;
57443;SDS011;43289;52.962;6.196;2024-03-02T04:02:58;4.07;;;2.40;;
57443;SDS011;43289;52.962;6.196;2024-03-02T04:05:24;3.47;;;2.33;;
57443;SDS011;43289;52.962;6.196;2024-03-02T04:07:50;4.38;;;2.55;;
57443;SDS011;43289;52.962;6.196;2024-03-02T04:10:16;4.82;;;2.22;;
57443;SDS011;43289;52.962;6.196;2024-03-02T04:12:42;4.35;;;2.33;;
57443;SDS011;43289;52.962;6.196;2024-03-02T04:15:08;4.68;;;2.70;;
57443;SDS011;43289;52.962;6.196;2024-03-02T04:17:34;3.83;;;2.50;;
57443;SDS011;43289;52.962;6.196;2024-03-02T04:20:01;6.35;;;2.65;;
57443;SDS011;43289;52.962;6.196;2024-03-02T04:22:29;5.40;;;2.63;;
57443;SDS011;43289;52.962;6.196;2024-03-02T04:24:55;4.03;;;2.22;;
57443;SDS011;43289;52.962;6.196;2024-03-02T04:27:21;3.97;;;2.17;;
57443;SDS011;43289;52.962;6.196;2024-03-02T04:29:47;5.32;;;2.95;;
57443;SDS011;43289;52.962;6.196;2024-03-02T04:32:13;6.38;;;2.50;;
57443;SDS011;43289;52.962;6.196;2024-03-02T04:34:39;4.28;;;2.63;;
57443;SDS011;43289;52.962;6.196;2024-03-02T04:37:06;3.97;;;2.42;;
57443;SDS011;43289;52.962;6.196;2024-03-02T04:39:32;3.47;;;2.20;;
57443;SDS011;43289;52.962;6.196;2024-03-02T04:41:58;4.57;;;2.10;;
57443;SDS011;43289;52.962;6.196;2024-03-02T04:44:24;4.38;;;2.10;;
57443;SDS011;43289;52.962;6.196;2024-03-02T04:46:50;4.20;;;1.90;;
57443;SDS011;43289;52.962;6.196;2024-03-02T04:49:16;5.30;;;1.95;;
57443;SDS011;43289;52.962;6.196;2024-03-02T04:51:42;4.88;;;2.30;;
57443;SDS011;43289;52.962;6.196;2024-03-02T04:54:08;3.45;;;1.70;;
57443;SDS011;43289;52.962;6.196;2024-03-02T04:56:34;2.78;;;1.60;;
57443;SDS011;43289;52.962;6.196;2024-03-02T04:59:26;4.72;;;1.70;;
57443;SDS011;43289;52.962;6.196;2024-03-02T05:01:52;3.35;;;1.40;;
57443;SDS011;43289;52.962;6.196;2024-03-02T05:04:18;2.63;;;1.30;;
57443;SDS011;43289;52.962;6.196;2024-03-02T05:06:44;1.85;;;1.10;;
57443;SDS011;43289;52.962;6.196;2024-03-02T05:09:17;2.95;;;1.00;;
57443;SDS011;43289;52.962;6.196;2024-03-02T05:11:43;2.88;;;1.00;;
57443;SDS011;43289;52.962;6.196;2024-03-02T05:14:09;1.95;;;0.85;;
57443;SDS011;43289;52.962;6.196;2024-03-02T05:16:35;0.68;;;0.63;;
57443;SDS011;43289;52.962;6.196;2024-03-02T05:19:03;1.50;;;0.70;;
57443;SDS011;43289;52.962;6.196;2024-03-02T05:21:32;1.10;;;0.70;;
57443;SDS011;43289;52.962;6.196;2024-03-02T05:23:58;0.95;;;0.85;;
57443;SDS011;43289;52.962;6.196;2024-03-02T05:26:24;1.25;;;0.88;;
57443;SDS011;43289;52.962;6.196;2024-03-02T05:28:50;1.27;;;0.70;;
57443;SDS011;43289;52.962;6.196;2024-03-02T05:31:16;1.42;;;0.60;;
57443;SDS011;43289;52.962;6.196;2024-03-02T05:33:43;0.60;;;0.60;;
57443;SDS011;43289;52.962;6.196;2024-03-02T05:36:09;2.17;;;0.60;;
57443;SDS011;43289;52.962;6.196;2024-03-02T05:38:35;0.52;;;0.52;;
57443;SDS011;43289;52.962;6.196;2024-03-02T05:41:01;0.50;;;0.50;;
57443;SDS011;43289;52.962;6.196;2024-03-02T05:43:27;0.40;;;0.40;;
57443;SDS011;43289;52.962;6.196;2024-03-02T05:45:54;0.95;;;0.57;;
57443;SDS011;43289;52.962;6.196;2024-03-02T05:48:20;2.65;;;0.93;;
57443;SDS011;43289;52.962;6.196;2024-03-02T05:50:46;1.10;;;0.60;;
57443;SDS011;43289;52.962;6.196;2024-03-02T05:53:12;0.80;;;0.68;;
57443;SDS011;43289;52.962;6.196;2024-03-02T05:55:38;0.73;;;0.60;;
57443;SDS011;43289;52.962;6.196;2024-03-02T05:58:04;1.77;;;0.68;;
57443;SDS011;43289;52.962;6.196;2024-03-02T06:00:48;2.15;;;0.70;;
57443;SDS011;43289;52.962;6.196;2024-03-02T06:03:14;1.13;;;0.60;;
57443;SDS011;43289;52.962;6.196;2024-03-02T06:05:40;1.27;;;0.77;;
57443;SDS011;43289;52.962;6.196;2024-03-02T06:08:06;1.23;;;0.75;;
57443;SDS011;43289;52.962;6.196;2024-03-02T06:10:32;2.13;;;0.85;;
57443;SDS011;43289;52.962;6.196;2024-03-02T06:12:58;0.80;;;0.68;;
57443;SDS011;43289;52.962;6.196;2024-03-02T06:15:24;0.85;;;0.70;;
57443;SDS011;43289;52.962;6.196;2024-03-02T06:17:50;2.28;;;0.80;;
57443;SDS011;43289;52.962;6.196;2024-03-02T06:20:16;1.40;;;0.85;;
57443;SDS011;43289;52.962;6.196;2024-03-02T06:22:42;1.15;;;0.70;;
57443;SDS011;43289;52.962;6.196;2024-03-02T06:25:08;2.80;;;0.80;;
57443;SDS011;43289;52.962;6.196;2024-03-02T06:27:34;2.47;;;1.38;;
57443;SDS011;43289;52.962;6.196;2024-03-02T06:30:00;2.97;;;0.82;;
57443;SDS011;43289;52.962;6.196;2024-03-02T06:32:28;2.05;;;0.80;;
57443;SDS011;43289;52.962;6.196;2024-03-02T06:34:54;2.20;;;0.80;;
57443;SDS011;43289;52.962;6.196;2024-03-02T06:37:20;0.77;;;0.73;;
57443;SDS011;43289;52.962;6.196;2024-03-02T06:39:47;1.20;;;0.60;;
57443;SDS011;43289;52.962;6.196;2024-03-02T06:42:13;1.75;;;0.75;;
57443;SDS011;43289;52.962;6.196;2024-03-02T06:44:39;1.00;;;0.85;;
57443;SDS011;43289;52.962;6.196;2024-03-02T06:47:05;1.35;;;0.90;;
57443;SDS011;43289;52.962;6.196;2024-03-02T06:49:31;1.05;;;0.63;;
57443;SDS011;43289;52.962;6.196;2024-03-02T06:51:59;0.55;;;0.52;;
57443;SDS011;43289;52.962;6.196;2024-03-02T06:54:25;1.10;;;0.70;;
57443;SDS011;43289;52.962;6.196;2024-03-02T06:56:51;0.82;;;0.70;;
57443;SDS011;43289;52.962;6.196;2024-03-02T06:59:17;1.80;;;1.13;;
57443;SDS011;43289;52.962;6.196;2024-03-02T07:01:43;1.30;;;0.90;;
57443;SDS011;43289;52.962;6.196;2024-03-02T07:04:09;1.35;;;0.95;;
57443;SDS011;43289;52.962;6.196;2024-03-02T07:06:35;2.10;;;0.90;;
57443;SDS011;43289;52.962;6.196;2024-03-02T07:09:01;1.00;;;0.80;;
57443;SDS011;43289;52.962;6.196;2024-03-02T07:11:27;1.33;;;0.82;;
57443;SDS011;43289;52.962;6.196;2024-03-02T07:13:53;1.65;;;1.33;;
57443;SDS011;43289;52.962;6.196;2024-03-02T07:16:19;1.77;;;1.40;;
57443;SDS011;43289;52.962;6.196;2024-03-02T07:18:45;2.85;;;0.95;;
57443;SDS011;43289;52.962;6.196;2024-03-02T07:21:16;2.83;;;1.13;;
57443;SDS011;43289;52.962;6.196;2024-03-02T07:23:43;1.80;;;0.90;;
57443;SDS011;43289;52.962;6.196;2024-03-02T07:26:09;2.50;;;0.90;;
57443;SDS011;43289;52.962;6.196;2024-03-02T07:28:35;1.15;;;0.93;;
57443;SDS011;43289;52.962;6.196;2024-03-02T07:31:01;2.17;;;1.00;;
57443;SDS011;43289;52.962;6.196;2024-03-02T07:33:29;1.58;;;0.93;;
57443;SDS011;43289;52.962;6.196;2024-03-02T07:35:55;1.35;;;0.80;;
57443;SDS011;43289;52.962;6.196;2024-03-02T07:38:22;2.60;;;0.90;;
57443;SDS011;43289;52.962;6.196;2024-03-02T07:40:48;2.25;;;0.90;;
57443;SDS011;43289;52.962;6.196;2024-03-02T07:43:18;3.83;;;1.10;;
57443;SDS011;43289;52.962;6.196;2024-03-02T07:45:45;1.65;;;1.00;;
57443;SDS011;43289;52.962;6.196;2024-03-02T07:48:11;1.38;;;0.90;;
57443;SDS011;43289;52.962;6.196;2024-03-02T07:50:37;1.67;;;0.93;;
57443;SDS011;43289;52.962;6.196;2024-03-02T07:56:40;1.63;;;0.80;;
57443;SDS011;43289;52.962;6.196;2024-03-02T07:59:06;1.60;;;0.95;;
57443;SDS011;43289;52.962;6.196;2024-03-02T08:01:32;1.55;;;0.90;;
57443;SDS011;43289;52.962;6.196;2024-03-02T08:03:59;2.67;;;1.00;;
57443;SDS011;43289;52.962;6.196;2024-03-02T08:06:28;2.88;;;0.90;;
57443;SDS011;43289;52.962;6.196;2024-03-02T08:08:58;1.75;;;1.00;;
57443;SDS011;43289;52.962;6.196;2024-03-02T08:11:24;2.67;;;1.33;;
57443;SDS011;43289;52.962;6.196;2024-03-02T08:13:52;4.13;;;1.17;;
57443;SDS011;43289;52.962;6.196;2024-03-02T08:16:20;2.05;;;0.73;;
57443;SDS011;43289;52.962;6.196;2024-03-02T08:18:47;1.73;;;1.08;;
57443;SDS011;43289;52.962;6.196;2024-03-02T08:21:13;3.63;;;0.80;;
57443;SDS011;43289;52.962;6.196;2024-03-02T08:23:40;1.40;;;1.10;;
57443;SDS011;43289;52.962;6.196;2024-03-02T08:26:07;2.13;;;1.27;;
57443;SDS011;43289;52.962;6.196;2024-03-02T08:28:33;1.48;;;1.00;;
57443;SDS011;43289;52.962;6.196;2024-03-02T08:31:03;1.30;;;0.90;;
57443;SDS011;43289;52.962;6.196;2024-03-02T08:33:29;2.63;;;1.08;;
57443;SDS011;43289;52.962;6.196;2024-03-02T08:35:56;2.05;;;0.93;;
57443;SDS011;43289;52.962;6.196;2024-03-02T08:38:22;4.88;;;1.10;;
57443;SDS011;43289;52.962;6.196;2024-03-02T08:40:49;3.08;;;1.02;;
57443;SDS011;43289;52.962;6.196;2024-03-02T08:43:15;3.90;;;1.08;;
57443;SDS011;43289;52.962;6.196;2024-03-02T08:45:41;1.95;;;1.00;;
57443;SDS011;43289;52.962;6.196;2024-03-02T08:48:07;2.45;;;1.08;;
57443;SDS011;43289;52.962;6.196;2024-03-02T08:50:33;2.13;;;1.00;;
57443;SDS011;43289;52.962;6.196;2024-03-02T08:53:00;2.15;;;0.77;;
57443;SDS011;43289;52.962;6.196;2024-03-02T08:55:26;1.63;;;0.82;;
57443;SDS011;43289;52.962;6.196;2024-03-02T08:57:52;2.42;;;0.90;;
57443;SDS011;43289;52.962;6.196;2024-03-02T09:00:18;3.63;;;1.15;;
57443;SDS011;43289;52.962;6.196;2024-03-02T09:02:45;2.78;;;1.30;;
57443;SDS011;43289;52.962;6.196;2024-03-02T09:05:11;3.00;;;1.02;;
57443;SDS011;43289;52.962;6.196;2024-03-02T09:07:37;2.08;;;1.02;;
57443;SDS011;43289;52.962;6.196;2024-03-02T09:10:07;4.85;;;0.90;;
57443;SDS011;43289;52.962;6.196;2024-03-02T09:12:33;1.70;;;0.95;;
57443;SDS011;43289;52.962;6.196;2024-03-02T09:14:59;1.65;;;0.85;;
57443;SDS011;43289;52.962;6.196;2024-03-02T09:17:26;1.83;;;1.02;;
57443;SDS011;43289;52.962;6.196;2024-03-02T09:19:52;1.80;;;0.90;;
57443;SDS011;43289;52.962;6.196;2024-03-02T09:22:19;1.80;;;1.05;;
57443;SDS011;43289;52.962;6.196;2024-03-02T09:24:45;2.08;;;0.90;;
57443;SDS011;43289;52.962;6.196;2024-03-02T09:27:11;2.30;;;0.90;;
57443;SDS011;43289;52.962;6.196;2024-03-02T09:29:37;1.95;;;0.88;;
57443;SDS011;43289;52.962;6.196;2024-03-02T09:32:04;1.13;;;0.80;;
57443;SDS011;43289;52.962;6.196;2024-03-02T09:34:30;2.92;;;1.20;;
57443;SDS011;43289;52.962;6.196;2024-03-02T09:36:57;2.03;;;1.00;;
57443;SDS011;43289;52.962;6.196;2024-03-02T09:39:23;3.15;;;1.05;;
57443;SDS011;43289;52.962;6.196;2024-03-02T09:41:50;1.65;;;0.90;;
57443;SDS011;43289;52.962;6.196;2024-03-02T09:44:16;2.00;;;1.05;;
57443;SDS011;43289;52.962;6.196;2024-03-02T09:46:43;2.78;;;1.05;;
57443;SDS011;43289;52.962;6.196;2024-03-02T09:49:10;2.17;;;1.20;;
57443;SDS011;43289;52.962;6.196;2024-03-02T09:51:39;2.47;;;0.98;;
57443;SDS011;43289;52.962;6.196;2024-03-02T09:54:07;3.50;;;1.15;;
57443;SDS011;43289;52.962;6.196;2024-03-02T09:56:33;3.70;;;1.20;;
57443;SDS011;43289;52.962;6.196;2024-03-02T09:58:59;1.45;;;0.90;;
57443;SDS011;43289;52.962;6.196;2024-03-02T10:01:25;2.45;;;1.40;;
57443;SDS011;43289;52.962;6.196;2024-03-02T10:03:51;2.13;;;0.95;;
57443;SDS011;43289;52.962;6.196;2024-03-02T10:06:19;7.13;;;2.55;;
57443;SDS011;43289;52.962;6.196;2024-03-02T10:08:45;1.95;;;1.10;;
57443;SDS011;43289;52.962;6.196;2024-03-02T10:11:29;3.25;;;1.17;;
57443;SDS011;43289;52.962;6.196;2024-03-02T10:16:33;2.65;;;0.93;;
57443;SDS011;43289;52.962;6.196;2024-03-02T10:19:13;2.53;;;0.80;;
57443;SDS011;43289;52.962;6.196;2024-03-02T10:21:41;3.28;;;1.15;;
57443;SDS011;43289;52.962;6.196;2024-03-02T10:24:07;4.05;;;0.90;;
57443;SDS011;43289;52.962;6.196;2024-03-02T10:26:33;3.63;;;1.23;;
57443;SDS011;43289;52.962;6.196;2024-03-02T10:28:59;3.65;;;1.60;;
57443;SDS011;43289;52.962;6.196;2024-03-02T10:31:26;2.30;;;0.80;;
57443;SDS011;43289;52.962;6.196;2024-03-02T10:33:57;3.47;;;1.13;;
57443;SDS011;43289;52.962;6.196;2024-03-02T10:36:25;5.07;;;1.15;;
57443;SDS011;43289;52.962;6.196;2024-03-02T10:38:51;1.98;;;0.90;;
57443;SDS011;43289;52.962;6.196;2024-03-02T10:41:23;3.25;;;0.88;;
57443;SDS011;43289;52.962;6.196;2024-03-02T10:43:53;3.00;;;0.85;;
57443;SDS011;43289;52.962;6.196;2024-03-02T10:46:24;2.97;;;1.05;;
57443;SDS011;43289;52.962;6.196;2024-03-02T10:48:56;2.42;;;1.10;;
57443;SDS011;43289;52.962;6.196;2024-03-02T10:51:27;2.72;;;1.02;;
57443;SDS011;43289;52.962;6.196;2024-03-02T10:53:56;2.92;;;1.10;;
57443;SDS011;43289;52.962;6.196;2024-03-02T10:56:32;2.60;;;1.00;;
57443;SDS011;43289;52.962;6.196;2024-03-02T10:59:03;2.78;;;0.80;;
57443;SDS011;43289;52.962;6.196;2024-03-02T11:01:30;3.85;;;1.20;;
57443;SDS011;43289;52.962;6.196;2024-03-02T11:03:58;2.88;;;1.48;;
57443;SDS011;43289;52.962;6.196;2024-03-02T11:06:25;3.25;;;1.20;;
57443;SDS011;43289;52.962;6.196;2024-03-02T11:08:52;1.02;;;0.70;;
57443;SDS011;43289;52.962;6.196;2024-03-02T11:11:21;1.65;;;1.25;;
57443;SDS011;43289;52.962;6.196;2024-03-02T11:13:50;1.90;;;0.95;;
57443;SDS011;43289;52.962;6.196;2024-03-02T11:16:33;2.55;;;1.10;;
57443;SDS011;43289;52.962;6.196;2024-03-02T11:19:02;4.03;;;0.98;;
57443;SDS011;43289;52.962;6.196;2024-03-02T11:21:29;4.97;;;1.42;;
57443;SDS011;43289;52.962;6.196;2024-03-02T11:23:56;3.50;;;1.15;;
57443;SDS011;43289;52.962;6.196;2024-03-02T11:26:22;1.83;;;1.08;;
57443;SDS011;43289;52.962;6.196;2024-03-02T11:28:49;3.22;;;0.85;;
57443;SDS011;43289;52.962;6.196;2024-03-02T11:31:15;2.13;;;1.02;;
57443;SDS011;43289;52.962;6.196;2024-03-02T11:33:41;3.85;;;1.40;;
57443;SDS011;43289;52.962;6.196;2024-03-02T11:36:08;1.95;;;1.10;;
57443;SDS011;43289;52.962;6.196;2024-03-02T11:38:35;3.38;;;1.20;;
57443;SDS011;43289;52.962;6.196;2024-03-02T11:41:07;2.55;;;0.82;;
57443;SDS011;43289;52.962;6.196;2024-03-02T11:43:37;1.02;;;0.77;;
57443;SDS011;43289;52.962;6.196;2024-03-02T11:46:04;4.82;;;1.45;;
57443;SDS011;43289;52.962;6.196;2024-03-02T11:48:34;2.13;;;1.10;;
57443;SDS011;43289;52.962;6.196;2024-03-02T11:51:00;2.90;;;1.60;;
57443;SDS011;43289;52.962;6.196;2024-03-02T11:53:27;4.07;;;1.13;;
57443;SDS011;43289;52.962;6.196;2024-03-02T11:55:57;2.35;;;0.88;;
57443;SDS011;43289;52.962;6.196;2024-03-02T11:58:31;1.70;;;1.00;;
57443;SDS011;43289;52.962;6.196;2024-03-02T12:00:57;3.50;;;0.80;;
57443;SDS011;43289;52.962;6.196;2024-03-02T12:03:24;3.97;;;1.10;;
57443;SDS011;43289;52.962;6.196;2024-03-02T12:05:51;1.88;;;0.85;;
57443;SDS011;43289;52.962;6.196;2024-03-02T12:08:17;6.30;;;1.63;;
57443;SDS011;43289;52.962;6.196;2024-03-02T12:10:43;2.20;;;0.82;;
57443;SDS011;43289;52.962;6.196;2024-03-02T12:13:21;2.15;;;1.00;;
57443;SDS011;43289;52.962;6.196;2024-03-02T12:15:47;1.60;;;1.02;;
57443;SDS011;43289;52.962;6.196;2024-03-02T12:18:13;3.53;;;1.50;;
57443;SDS011;43289;52.962;6.196;2024-03-02T12:20:39;2.50;;;1.02;;
57443;SDS011;43289;52.962;6.196;2024-03-02T12:23:05;3.05;;;0.90;;
57443;SDS011;43289;52.962;6.196;2024-03-02T12:25:32;2.45;;;0.90;;
57443;SDS011;43289;52.962;6.196;2024-03-02T12:27:59;2.50;;;1.02;;
57443;SDS011;43289;52.962;6.196;2024-03-02T12:30:26;4.28;;;1.00;;
57443;SDS011;43289;52.962;6.196;2024-03-02T12:32:52;1.73;;;0.80;;
57443;SDS011;43289;52.962;6.196;2024-03-02T12:35:18;3.65;;;1.13;;
57443;SDS011;43289;52.962;6.196;2024-03-02T12:37:46;3.22;;;1.05;;
57443;SDS011;43289;52.962;6.196;2024-03-02T12:40:13;2.40;;;0.93;;
57443;SDS011;43289;52.962;6.196;2024-03-02T12:42:39;3.47;;;1.20;;
57443;SDS011;43289;52.962;6.196;2024-03-02T12:45:07;1.90;;;1.00;;
57443;SDS011;43289;52.962;6.196;2024-03-02T12:47:34;2.53;;;1.50;;
57443;SDS011;43289;52.962;6.196;2024-03-02T12:50:00;4.03;;;1.25;;
57443;SDS011;43289;52.962;6.196;2024-03-02T12:52:26;1.35;;;0.80;;
57443;SDS011;43289;52.962;6.196;2024-03-02T12:54:52;3.95;;;1.02;;
57443;SDS011;43289;52.962;6.196;2024-03-02T12:57:24;3.92;;;1.00;;
57443;SDS011;43289;52.962;6.196;2024-03-02T12:59:52;3.88;;;1.15;;
57443;SDS011;43289;52.962;6.196;2024-03-02T13:02:18;1.50;;;0.77;;
57443;SDS011;43289;52.962;6.196;2024-03-02T13:04:44;2.47;;;1.00;;
57443;SDS011;43289;52.962;6.196;2024-03-02T13:07:10;5.38;;;1.00;;
57443;SDS011;43289;52.962;6.196;2024-03-02T13:09:38;2.67;;;1.23;;
57443;SDS011;43289;52.962;6.196;2024-03-02T13:12:05;2.97;;;0.90;;
57443;SDS011;43289;52.962;6.196;2024-03-02T13:14:35;5.22;;;1.38;;
57443;SDS011;43289;52.962;6.196;2024-03-02T13:17:01;3.83;;;1.52;;
57443;SDS011;43289;52.962;6.196;2024-03-02T13:19:30;3.83;;;1.17;;
57443;SDS011;43289;52.962;6.196;2024-03-02T13:21:57;5.40;;;1.25;;
57443;SDS011;43289;52.962;6.196;2024-03-02T13:24:23;2.70;;;0.98;;
57443;SDS011;43289;52.962;6.196;2024-03-02T13:26:54;2.00;;;0.95;;
57443;SDS011;43289;52.962;6.196;2024-03-02T13:29:22;2.85;;;1.00;;
57443;SDS011;43289;52.962;6.196;2024-03-02T13:31:48;2.72;;;0.90;;
57443;SDS011;43289;52.962;6.196;2024-03-02T13:34:14;1.95;;;0.90;;
57443;SDS011;43289;52.962;6.196;2024-03-02T13:36:40;2.63;;;1.35;;
57443;SDS011;43289;52.962;6.196;2024-03-02T13:39:06;3.10;;;1.20;;
57443;SDS011;43289;52.962;6.196;2024-03-02T13:41:35;2.22;;;0.98;;
57443;SDS011;43289;52.962;6.196;2024-03-02T13:44:01;2.28;;;1.20;;
57443;SDS011;43289;52.962;6.196;2024-03-02T13:46:27;3.45;;;1.35;;
57443;SDS011;43289;52.962;6.196;2024-03-02T13:48:54;2.35;;;1.35;;
57443;SDS011;43289;52.962;6.196;2024-03-02T13:51:20;4.05;;;2.15;;
57443;SDS011;43289;52.962;6.196;2024-03-02T13:53:46;2.97;;;1.00;;
57443;SDS011;43289;52.962;6.196;2024-03-02T13:56:12;2.58;;;1.15;;
57443;SDS011;43289;52.962;6.196;2024-03-02T13:58:38;2.95;;;1.02;;
57443;SDS011;43289;52.962;6.196;2024-03-02T14:01:05;3.85;;;1.70;;
57443;SDS011;43289;52.962;6.196;2024-03-02T14:03:31;3.65;;;1.13;;
57443;SDS011;43289;52.962;6.196;2024-03-02T14:05:57;1.63;;;0.90;;
57443;SDS011;43289;52.962;6.196;2024-03-02T14:08:23;2.45;;;1.30;;
57443;SDS011;43289;52.962;6.196;2024-03-02T14:10:49;4.03;;;1.60;;
57443;SDS011;43289;52.962;6.196;2024-03-02T14:13:15;3.97;;;1.55;;
57443;SDS011;43289;52.962;6.196;2024-03-02T14:15:42;3.15;;;1.83;;
57443;SDS011;43289;52.962;6.196;2024-03-02T14:18:08;4.80;;;2.35;;
57443;SDS011;43289;52.962;6.196;2024-03-02T14:20:37;4.15;;;2.13;;
57443;SDS011;43289;52.962;6.196;2024-03-02T14:23:03;4.03;;;2.08;;
57443;SDS011;43289;52.962;6.196;2024-03-02T14:25:29;3.72;;;2.13;;
57443;SDS011;43289;52.962;6.196;2024-03-02T14:27:58;3.40;;;2.22;;
57443;SDS011;43289;52.962;6.196;2024-03-02T14:30:31;4.30;;;2.30;;
57443;SDS011;43289;52.962;6.196;2024-03-02T14:32:59;3.97;;;2.40;;
57443;SDS011;43289;52.962;6.196;2024-03-02T14:35:25;5.70;;;2.88;;
57443;SDS011;43289;52.962;6.196;2024-03-02T14:37:53;5.55;;;3.10;;
57443;SDS011;43289;52.962;6.196;2024-03-02T14:40:19;10.98;;;4.22;;
57443;SDS011;43289;52.962;6.196;2024-03-02T14:42:46;4.28;;;2.60;;
57443;SDS011;43289;52.962;6.196;2024-03-02T14:45:13;2.85;;;2.17;;
57443;SDS011;43289;52.962;6.196;2024-03-02T14:47:39;5.07;;;2.85;;
57443;SDS011;43289;52.962;6.196;2024-03-02T14:50:05;5.63;;;2.70;;
57443;SDS011;43289;52.962;6.196;2024-03-02T14:52:32;4.78;;;2.90;;
57443;SDS011;43289;52.962;6.196;2024-03-02T14:54:58;5.45;;;2.92;;
57443;SDS011;43289;52.962;6.196;2024-03-02T14:57:24;5.18;;;2.47;;
57443;SDS011;43289;52.962;6.196;2024-03-02T14:59:50;5.30;;;2.90;;
57443;SDS011;43289;52.962;6.196;2024-03-02T15:02:16;4.10;;;2.55;;
57443;SDS011;43289;52.962;6.196;2024-03-02T15:04:42;5.68;;;2.75;;
57443;SDS011;43289;52.962;6.196;2024-03-02T15:07:10;4.68;;;2.67;;